Mc Ghee Tyson Airport
KTYS : now visible

Airfield :











YOU CAN JOIN US ON...

 
LOGIN :

Register | Disclaimer

   EN    FR    IT 

 









Legend :    VFR   Marginal VFR   IFR   Intensive IFR   Very Intensive IFR
Visi :
Ceiling :
>= 8 km
>= 3000ft
5 to 8 km
1000 to 3000 ft
1500m to 5 km
500 to 1000 ft
800 to 1500m
200 to 500 ft
< 800m
< 200 ft
Symbols :   Thunderstorms  Fog  Heavy snow  Heavy precipitations  Wind > 20 kt







- Airport Elevation : 981 ft
- IATA code : TYS


KTYS - Mc Ghee Tyson

CURRENT METAR :
  • 181553Z 22016G26KT 10SM FEW042 FEW180 BKN250 25/13 A2992 RMK AO2 PK WND 22028/1520 SLP121 T02500128

EXPIRED METARs :
  • 181453Z 21017G25KT 10SM FEW039 BKN250 24/12 A2992 RMK AO2 SLP123 T02390122 50002
  • 181353Z 22007KT 10SM FEW037 SCT200 OVC250 22/13 A2994 RMK AO2 SLP130 T02170128

TAF KTYS
Valid from the 18 at 12:00 until the 19 at 12:00 UTC


181120Z 1812/1912 24005KT P6SM SCT200
FM181400 22010KT P6SM FEW120 BKN200
FM181700 21015G25KT P6SM SCT120 BKN200
FM190200 19012G20KT P6SM VCSH SCT070 BKN120
FM190800 21015G25KT P6SM -SHRA VCTS SCT035CB OVC060
KZTL FIR / North America



MET'MAP, your aeronautical weather chart ! - Copyright ORBIFLY December 2007 - Disclaimer

ORBIFLY MET'MAP TEAM :

Programming & Development : Alexandra Zaïnal
Concept & Development : Baudouin d'Aumeries
Co-Development & Prog : Marc-Olivier Méhu
Technical & hardware support : Manuel Goepfert

Contact : metmap@orbifly.com




SOURCES & CREDITS :

   NOAA       Earth
Advisory